createdAt,value
2019-03-29T00:01:42.783Z,102149.38
2019-03-29T00:04:15.089Z,102151.09
2019-03-29T00:06:57.595Z,102150.18
2019-03-29T00:09:52.582Z,102148.09
2019-03-29T00:12:28.682Z,102076.16
2019-03-29T00:15:05.280Z,102149.53
2019-03-29T00:17:43.997Z,102154.95
2019-03-29T00:20:24.823Z,102153.30
2019-03-29T00:23:15.172Z,102153.47
2019-03-29T00:25:47.161Z,102159.06
2019-03-29T00:28:23.442Z,102147.48
2019-03-29T00:31:06.795Z,102147.48
2019-03-29T00:33:43.038Z,102145.17
2019-03-29T00:36:22.476Z,102142.65
2019-03-29T00:38:55.663Z,102141.23
2019-03-29T00:41:32.785Z,102144.69
2019-03-29T00:44:12.486Z,102146.16
2019-03-29T00:46:48.495Z,102137.81
2019-03-29T00:49:31.177Z,102139.05
2019-03-29T00:52:15.385Z,102129.69
2019-03-29T00:54:49.309Z,102136.69
2019-03-29T00:57:30.303Z,102137.61
2019-03-29T01:00:12.686Z,102134.55
2019-03-29T01:02:47.705Z,102141.13
2019-03-29T01:05:22.787Z,102133.97
2019-03-29T01:08:08.204Z,102134.98
2019-03-29T01:10:41.654Z,102132.66
2019-03-29T01:13:22.846Z,102134.23
2019-03-29T01:16:01.182Z,102136.45
2019-03-29T01:18:43.703Z,102134.59
2019-03-29T01:21:20.391Z,102137.34
2019-03-29T01:23:56.170Z,102138.97
2019-03-29T01:26:31.294Z,102136.91
2019-03-29T01:29:08.057Z,102132.78
2019-03-29T01:31:42.549Z,102131.31
2019-03-29T01:34:17.143Z,102125.45
2019-03-29T01:36:51.471Z,102123.42
2019-03-29T01:39:25.209Z,102123.00
2019-03-29T01:42:02.940Z,102118.83
2019-03-29T01:44:29.174Z,102119.07
2019-03-29T01:47:18.284Z,102112.07
2019-03-29T01:50:00.852Z,102112.96
2019-03-29T01:52:45.847Z,102113.70
2019-03-29T01:55:17.635Z,102109.54
2019-03-29T01:57:54.027Z,102100.11
2019-03-29T02:00:40.691Z,102112.81
2019-03-29T02:03:10.650Z,102104.31
2019-03-29T02:05:40.143Z,102098.34
2019-03-29T02:08:34.877Z,102102.58
2019-03-29T02:11:11.231Z,102104.79
2019-03-29T02:13:40.669Z,102106.04
2019-03-29T02:16:16.684Z,102102.13
2019-03-29T02:18:53.151Z,102106.48
2019-03-29T02:21:38.444Z,102101.79
2019-03-29T02:24:08.761Z,102104.33
2019-03-29T02:26:43.523Z,102102.70
2019-03-29T02:29:15.633Z,102107.66
2019-03-29T02:31:52.280Z,102102.73
2019-03-29T02:34:21.816Z,102103.80
2019-03-29T02:36:53.776Z,102095.03
2019-03-29T02:39:26.841Z,102098.67
2019-03-29T02:41:56.093Z,102094.31
2019-03-29T02:44:25.836Z,102089.76
2019-03-29T02:46:56.497Z,102077.62
2019-03-29T02:49:29.401Z,102083.95
2019-03-29T02:52:01.456Z,102079.51
2019-03-29T02:54:33.689Z,102087.70
2019-03-29T02:57:03.094Z,102086.72
2019-03-29T02:59:32.505Z,102085.67
2019-03-29T03:02:02.407Z,102079.48
2019-03-29T03:04:32.111Z,102076.56
2019-03-29T03:07:01.774Z,102076.06
2019-03-29T03:09:31.433Z,102082.73
2019-03-29T03:12:01.012Z,102076.27
2019-03-29T03:14:30.377Z,102082.66
2019-03-29T03:16:59.977Z,102088.65
2019-03-29T03:19:29.590Z,102080.77
2019-03-29T03:22:00.527Z,102082.52
2019-03-29T03:24:30.116Z,102086.68
2019-03-29T03:27:01.198Z,102083.59
2019-03-29T03:29:30.773Z,102083.58
2019-03-29T03:32:00.318Z,102095.33
2019-03-29T03:34:29.897Z,102090.20
2019-03-29T03:36:59.377Z,102084.01
2019-03-29T03:39:32.310Z,102089.77
2019-03-29T03:42:13.104Z,102088.70
2019-03-29T03:44:42.667Z,102076.53
2019-03-29T03:47:12.082Z,102082.02
2019-03-29T03:49:41.524Z,102076.97
2019-03-29T03:52:11.066Z,102078.23
2019-03-29T03:54:41.287Z,102077.32
2019-03-29T03:57:21.485Z,102070.80
2019-03-29T03:59:54.204Z,102069.74
2019-03-29T04:02:23.748Z,102070.38
2019-03-29T04:05:05.342Z,102070.38
2019-03-29T04:07:39.144Z,102063.98
2019-03-29T04:10:19.323Z,102067.56
2019-03-29T04:12:50.554Z,102060.26
2019-03-29T04:15:20.029Z,102058.36
2019-03-29T04:18:01.431Z,102060.95
2019-03-29T04:20:34.429Z,102060.02
2019-03-29T04:23:07.189Z,102056.59
2019-03-29T04:25:40.750Z,102067.36
2019-03-29T04:28:10.180Z,102058.22
2019-03-29T04:30:46.201Z,102059.55
2019-03-29T04:33:15.651Z,102053.14
2019-03-29T04:35:45.133Z,102064.84
2019-03-29T04:38:23.999Z,102063.00
2019-03-29T04:40:54.090Z,102064.31
2019-03-29T04:43:26.696Z,102064.05
2019-03-29T04:45:58.441Z,102064.61
2019-03-29T04:48:27.923Z,102062.98
2019-03-29T04:51:05.110Z,102060.89
2019-03-29T04:53:41.470Z,102060.95
2019-03-29T04:56:14.925Z,102066.37
2019-03-29T04:58:44.138Z,102062.75
2019-03-29T05:01:32.715Z,102060.33
2019-03-29T05:04:11.511Z,102058.34
2019-03-29T05:06:38.184Z,102056.20
2019-03-29T05:09:15.372Z,102052.20
2019-03-29T05:11:52.367Z,102058.83
2019-03-29T05:14:21.729Z,102063.77
2019-03-29T05:16:51.208Z,102066.02
2019-03-29T05:19:20.560Z,102057.57
2019-03-29T05:21:49.950Z,102069.68
2019-03-29T05:24:19.419Z,102068.11
2019-03-29T05:26:48.913Z,102071.22
2019-03-29T05:29:19.043Z,102064.75
2019-03-29T05:31:48.443Z,102071.39
2019-03-29T05:34:18.016Z,102067.70
2019-03-29T05:36:48.614Z,102062.36
2019-03-29T05:39:27.328Z,102065.86
2019-03-29T05:41:56.796Z,102067.84
2019-03-29T05:44:31.703Z,102068.66
2019-03-29T05:47:07.648Z,102078.67
2019-03-29T05:49:59.086Z,102067.14
2019-03-29T05:52:32.138Z,102066.12
2019-03-29T05:55:01.869Z,102058.59
2019-03-29T05:57:31.411Z,102055.03
2019-03-29T06:00:00.941Z,102058.78
2019-03-29T06:02:30.468Z,102054.92
2019-03-29T06:05:12.225Z,102050.78
2019-03-29T06:07:50.386Z,102052.93
2019-03-29T06:10:19.619Z,102050.91
2019-03-29T06:12:51.807Z,102058.29
2019-03-29T06:15:22.489Z,102057.70
2019-03-29T06:17:51.927Z,102055.37
2019-03-29T06:20:21.543Z,102063.55
2019-03-29T06:22:51.087Z,101986.30
2019-03-29T06:25:20.554Z,102051.98
2019-03-29T06:28:00.250Z,102053.29
2019-03-29T06:30:37.851Z,102047.87
2019-03-29T06:33:17.258Z,102053.17
2019-03-29T06:35:58.953Z,102050.39
2019-03-29T06:38:30.771Z,102052.26
2019-03-29T06:41:03.780Z,102048.84
2019-03-29T06:43:33.858Z,102045.85
2019-03-29T06:46:08.311Z,102045.91
2019-03-29T06:48:38.693Z,102046.22
2019-03-29T06:51:08.441Z,102044.59
2019-03-29T06:53:39.670Z,102056.15
2019-03-29T06:56:09.457Z,102049.11
2019-03-29T06:58:42.304Z,102049.14
2019-03-29T07:01:14.276Z,102041.73
2019-03-29T07:03:45.513Z,102039.39
2019-03-29T07:06:15.352Z,102043.09
2019-03-29T07:08:46.730Z,102039.72
2019-03-29T07:11:19.912Z,102037.70
2019-03-29T07:13:57.510Z,102038.38
2019-03-29T07:16:22.343Z,102042.76
2019-03-29T07:18:55.152Z,102038.69
2019-03-29T07:21:44.301Z,102046.11
2019-03-29T07:24:16.271Z,102042.23
2019-03-29T07:26:48.583Z,102046.13
2019-03-29T07:29:18.278Z,102049.65
2019-03-29T07:31:57.837Z,102042.09
2019-03-29T07:34:37.939Z,102046.46
2019-03-29T07:37:13.772Z,101902.36
2019-03-29T07:39:45.565Z,102048.45
2019-03-29T07:42:17.939Z,102034.84
2019-03-29T07:44:48.783Z,102036.87
2019-03-29T07:47:35.920Z,102034.84
2019-03-29T07:50:19.314Z,102028.28
2019-03-29T07:52:51.162Z,102032.82
2019-03-29T07:55:28.773Z,102031.94
2019-03-29T07:57:59.041Z,102029.11
2019-03-29T08:00:38.037Z,102029.23
2019-03-29T08:03:11.236Z,102030.12
2019-03-29T08:05:42.728Z,102027.94
2019-03-29T08:08:23.792Z,102028.75
2019-03-29T08:10:52.066Z,102022.53
2019-03-29T08:13:27.258Z,102031.59
2019-03-29T08:15:57.206Z,102020.80
2019-03-29T08:18:37.868Z,102019.78
2019-03-29T08:21:15.444Z,102016.06
2019-03-29T08:23:46.473Z,102016.06
2019-03-29T08:26:20.192Z,102021.41
2019-03-29T08:28:53.077Z,102028.28
2019-03-29T08:31:25.822Z,102022.98
2019-03-29T08:33:59.386Z,102026.50
2019-03-29T08:36:28.685Z,102015.64
2019-03-29T08:38:58.392Z,102022.55
2019-03-29T08:41:59.487Z,102013.00
2019-03-29T08:44:40.288Z,102017.02
2019-03-29T08:47:19.240Z,102012.93
2019-03-29T08:49:49.809Z,102024.26
2019-03-29T08:52:29.920Z,101981.04
2019-03-29T08:55:02.811Z,102015.23
2019-03-29T08:57:32.244Z,102012.23
2019-03-29T09:00:01.807Z,102006.64
2019-03-29T09:02:31.864Z,102011.88
2019-03-29T09:05:01.382Z,101998.70
2019-03-29T09:07:44.013Z,102000.66
2019-03-29T09:10:03.459Z,102001.92
2019-03-29T09:12:32.887Z,101999.78
2019-03-29T09:15:04.067Z,101987.98
2019-03-29T09:17:33.241Z,101999.52
2019-03-29T09:20:02.729Z,101990.60
2019-03-29T09:22:32.166Z,101989.18
2019-03-29T09:25:01.556Z,101991.61
2019-03-29T09:27:32.142Z,101979.37
2019-03-29T09:30:04.959Z,101984.73
2019-03-29T09:32:33.023Z,101988.12
2019-03-29T09:35:02.537Z,101988.47
2019-03-29T09:37:32.018Z,101985.97
2019-03-29T09:40:01.522Z,101986.76
2019-03-29T09:42:30.972Z,101987.52
2019-03-29T09:45:00.432Z,101979.77
2019-03-29T09:47:36.998Z,101983.85
2019-03-29T09:50:01.137Z,101979.34
2019-03-29T09:52:30.623Z,101974.59
2019-03-29T09:55:00.157Z,101971.23
2019-03-29T09:57:37.366Z,101965.90
2019-03-29T10:00:00.961Z,101971.69
2019-03-29T10:02:30.446Z,101963.53
2019-03-29T10:04:59.776Z,101966.41
2019-03-29T10:07:29.340Z,101960.72
2019-03-29T10:09:58.860Z,101959.83
2019-03-29T10:12:42.335Z,101959.02
2019-03-29T10:14:59.548Z,101959.68
2019-03-29T10:17:29.613Z,101961.45
2019-03-29T10:19:59.176Z,101953.61
2019-03-29T10:22:28.909Z,101954.27
2019-03-29T10:25:01.715Z,101948.55
2019-03-29T10:27:29.527Z,101945.93
2019-03-29T10:29:59.033Z,101949.59
2019-03-29T10:32:28.505Z,101942.28
2019-03-29T10:34:57.853Z,101949.13
2019-03-29T10:37:27.322Z,101932.30
2019-03-29T10:39:56.850Z,101931.58
2019-03-29T10:42:26.258Z,101930.98
2019-03-29T10:44:55.761Z,101921.06
2019-03-29T10:47:42.052Z,101922.23
2019-03-29T10:49:56.382Z,101917.13
2019-03-29T10:52:25.782Z,101915.27
2019-03-29T10:54:55.224Z,101919.05
2019-03-29T10:57:24.606Z,101912.76
2019-03-29T10:59:54.017Z,101908.85
2019-03-29T11:02:23.563Z,101907.30
2019-03-29T11:04:53.062Z,101911.37
2019-03-29T11:07:22.611Z,101898.52
2019-03-29T11:09:52.233Z,101901.37
2019-03-29T11:12:21.574Z,101899.16
2019-03-29T11:14:51.039Z,101865.71
2019-03-29T11:17:22.871Z,101889.54
2019-03-29T11:19:52.422Z,101884.40
2019-03-29T11:22:22.002Z,101885.17
2019-03-29T11:24:51.488Z,101883.22
2019-03-29T11:27:22.626Z,101883.55
2019-03-29T11:29:52.059Z,101872.75
2019-03-29T11:32:21.506Z,101876.59
2019-03-29T11:34:50.946Z,101867.39
2019-03-29T11:37:20.390Z,101872.77
2019-03-29T11:39:49.860Z,101879.34
2019-03-29T11:42:19.424Z,101878.40
2019-03-29T11:44:49.023Z,101872.16
2019-03-29T11:47:18.601Z,101879.34
2019-03-29T11:49:47.928Z,101876.66
2019-03-29T11:52:17.423Z,101865.11
2019-03-29T11:54:46.958Z,101867.42
2019-03-29T11:57:16.369Z,101867.61
2019-03-29T11:59:45.760Z,101860.83
2019-03-29T12:02:15.118Z,101863.23
2019-03-29T12:04:45.091Z,101863.94
2019-03-29T12:07:14.588Z,101852.56
2019-03-29T12:09:44.008Z,101846.17
2019-03-29T12:12:13.502Z,101849.91
2019-03-29T12:14:42.890Z,101850.84
2019-03-29T12:17:12.461Z,101845.75
2019-03-29T12:19:41.890Z,101848.73
2019-03-29T12:22:11.474Z,101844.77
2019-03-29T12:24:40.993Z,101842.06
2019-03-29T12:27:10.535Z,101841.95
2019-03-29T12:29:40.018Z,101831.84
2019-03-29T12:32:09.550Z,101836.13
2019-03-29T12:34:39.011Z,101828.52
2019-03-29T12:37:13.840Z,101819.20
2019-03-29T12:39:43.259Z,101818.91
2019-03-29T12:42:12.823Z,101815.13
2019-03-29T12:44:42.258Z,101805.25
2019-03-29T12:47:11.809Z,101803.29
2019-03-29T12:49:41.356Z,101807.13
2019-03-29T12:52:10.953Z,101798.17
2019-03-29T12:54:40.448Z,101802.03
2019-03-29T12:57:09.918Z,101797.64
2019-03-29T12:59:39.433Z,101796.16
2019-03-29T13:02:09.346Z,101795.98
2019-03-29T13:04:38.768Z,101795.02
2019-03-29T13:07:08.473Z,101788.03
2019-03-29T13:09:39.801Z,101776.04
2019-03-29T13:12:09.211Z,101770.27
2019-03-29T13:14:38.619Z,101773.94
2019-03-29T13:17:08.035Z,101769.57
2019-03-29T13:19:37.606Z,101763.20
2019-03-29T13:22:07.910Z,101757.83
2019-03-29T13:24:37.501Z,101742.53
2019-03-29T13:27:07.079Z,101742.91
2019-03-29T13:29:36.524Z,101735.37
2019-03-29T13:32:06.105Z,101734.53
2019-03-29T13:34:35.583Z,101725.94
2019-03-29T13:37:05.161Z,101721.42
2019-03-29T13:39:34.615Z,101719.27
2019-03-29T13:42:04.352Z,101714.45
2019-03-29T13:44:33.763Z,101720.53
2019-03-29T13:47:03.227Z,101712.33
2019-03-29T13:49:32.712Z,101708.70
2019-03-29T13:52:02.038Z,101702.54
2019-03-29T13:54:31.605Z,101694.66
2019-03-29T13:57:01.218Z,101690.41
2019-03-29T13:59:31.882Z,101695.73
2019-03-29T14:02:01.580Z,101685.25
2019-03-29T14:04:30.988Z,101686.18
2019-03-29T14:07:00.671Z,101685.30
2019-03-29T14:09:30.185Z,101672.95
2019-03-29T14:11:59.722Z,101670.21
2019-03-29T14:14:38.115Z,101669.34
2019-03-29T14:17:00.629Z,101662.80
2019-03-29T14:19:30.174Z,101654.31
2019-03-29T14:21:59.720Z,101657.41
2019-03-29T14:24:29.262Z,101648.98
2019-03-29T14:26:58.743Z,101646.25
2019-03-29T14:29:28.183Z,101639.38
2019-03-29T14:31:57.601Z,101633.16
2019-03-29T14:34:27.108Z,101634.14
2019-03-29T14:36:59.249Z,101633.48
2019-03-29T14:39:27.644Z,101628.66
2019-03-29T14:41:57.150Z,101630.81
2019-03-29T14:44:26.604Z,101626.49
2019-03-29T14:46:56.111Z,101621.05
2019-03-29T14:49:26.563Z,101614.14
2019-03-29T14:51:56.378Z,101616.37
2019-03-29T14:54:25.893Z,101607.45
2019-03-29T14:56:55.280Z,101603.91
2019-03-29T14:59:24.653Z,101606.73
2019-03-29T15:01:54.222Z,101593.60
2019-03-29T15:04:23.710Z,101592.39
2019-03-29T15:06:53.328Z,101595.41
2019-03-29T15:09:23.146Z,101593.40
2019-03-29T15:11:52.615Z,101588.22
2019-03-29T15:14:23.245Z,101588.22
2019-03-29T15:16:52.993Z,101581.47
2019-03-29T15:19:22.373Z,101576.34
2019-03-29T15:21:51.743Z,101567.98
2019-03-29T15:24:21.305Z,101565.13
2019-03-29T15:26:50.865Z,101569.55
2019-03-29T15:29:20.330Z,101567.98
2019-03-29T15:31:49.700Z,101561.02
2019-03-29T15:34:19.111Z,101556.11
2019-03-29T15:36:48.448Z,101556.78
2019-03-29T15:39:17.993Z,101560.80
2019-03-29T15:41:47.358Z,101563.13
2019-03-29T15:44:16.873Z,101563.86
2019-03-29T15:46:46.232Z,101512.09
2019-03-29T15:49:15.820Z,101556.73
2019-03-29T15:51:45.124Z,101555.73
2019-03-29T15:54:14.667Z,101552.98
2019-03-29T15:56:44.177Z,101554.05
2019-03-29T15:59:13.655Z,101556.48
2019-03-29T16:01:43.037Z,101547.59
2019-03-29T16:04:12.558Z,101545.63
2019-03-29T16:06:42.081Z,101541.30
2019-03-29T16:09:11.618Z,101547.98
2019-03-29T16:11:41.027Z,101537.55
2019-03-29T16:14:10.587Z,101538.45
2019-03-29T16:16:40.092Z,101538.55
2019-03-29T16:19:09.719Z,101532.75
2019-03-29T16:21:39.277Z,101534.20
2019-03-29T16:24:08.736Z,101536.72
2019-03-29T16:26:38.095Z,101527.98
2019-03-29T16:29:07.756Z,101527.11
2019-03-29T16:31:37.192Z,101527.48
2019-03-29T16:34:06.733Z,101526.46
2019-03-29T16:36:36.201Z,101522.00
2019-03-29T16:39:07.915Z,101517.42
2019-03-29T16:41:37.884Z,101518.66
2019-03-29T16:44:07.386Z,101506.63
2019-03-29T16:46:36.946Z,101514.20
2019-03-29T16:49:06.462Z,101511.37
2019-03-29T16:51:35.948Z,101504.33
2019-03-29T16:54:05.957Z,101507.38
2019-03-29T16:56:35.642Z,101503.78
2019-03-29T16:59:05.173Z,101505.06
2019-03-29T17:01:34.668Z,101509.50
2019-03-29T17:06:39.350Z,101511.02
2019-03-29T17:09:09.104Z,101502.39
2019-03-29T17:11:38.513Z,101500.94
2019-03-29T17:14:08.079Z,101499.75
2019-03-29T17:16:37.519Z,101506.06
2019-03-29T17:19:07.071Z,101503.73
2019-03-29T17:21:36.568Z,101504.89
2019-03-29T17:24:06.158Z,101509.96
2019-03-29T17:26:35.547Z,101509.91
2019-03-29T17:29:05.060Z,101513.17
2019-03-29T17:31:34.498Z,101515.44
2019-03-29T17:34:03.915Z,101508.09
2019-03-29T17:36:33.501Z,101510.11
2019-03-29T17:39:02.955Z,101514.59
2019-03-29T17:41:32.261Z,101512.91
2019-03-29T17:44:01.600Z,101515.70
2019-03-29T17:46:31.215Z,101512.46
2019-03-29T17:49:00.944Z,101506.02
2019-03-29T17:51:30.362Z,101509.22
2019-03-29T17:53:59.924Z,101508.63
2019-03-29T17:56:29.488Z,101510.84
2019-03-29T17:58:58.977Z,101511.14
2019-03-29T18:01:28.393Z,101517.86
2019-03-29T18:03:57.874Z,101516.53
2019-03-29T18:06:27.255Z,101511.45
2019-03-29T18:09:01.136Z,101514.89
2019-03-29T18:11:30.434Z,101513.77
2019-03-29T18:13:59.985Z,101508.23
2019-03-29T18:16:30.950Z,101512.81
2019-03-29T18:19:00.801Z,101506.05
2019-03-29T18:21:30.207Z,101493.69
2019-03-29T18:23:59.711Z,101519.23
2019-03-29T18:26:29.076Z,101514.03
2019-03-29T18:28:58.629Z,101517.35
2019-03-29T18:31:28.286Z,101519.54
2019-03-29T18:33:57.863Z,101515.26
2019-03-29T18:36:27.362Z,101514.28
2019-03-29T18:38:57.148Z,101511.94
2019-03-29T18:41:26.793Z,101510.64
2019-03-29T18:43:56.431Z,101511.89
2019-03-29T18:46:25.959Z,101511.89
2019-03-29T18:48:55.614Z,101512.56
2019-03-29T18:51:25.336Z,101510.84
2019-03-29T18:53:54.785Z,101505.27
2019-03-29T18:56:24.770Z,101509.11
2019-03-29T18:58:54.344Z,101503.16
2019-03-29T19:01:23.873Z,101502.66
2019-03-29T19:03:53.424Z,101509.48
2019-03-29T19:06:22.958Z,101511.91
2019-03-29T19:08:52.432Z,101510.20
2019-03-29T19:11:21.920Z,101512.02
2019-03-29T19:13:51.375Z,101508.66
2019-03-29T19:16:20.790Z,101504.16
2019-03-29T19:18:50.364Z,101501.67
2019-03-29T19:21:19.835Z,101504.59
2019-03-29T19:23:49.368Z,101503.75
2019-03-29T19:26:18.919Z,101497.16
2019-03-29T19:28:48.329Z,101500.61
2019-03-29T19:31:17.801Z,101498.80
2019-03-29T19:33:47.213Z,101497.06
2019-03-29T19:36:16.690Z,101504.24
2019-03-29T19:38:46.744Z,101502.89
2019-03-29T19:41:16.294Z,101502.70
2019-03-29T19:43:45.802Z,101503.19
2019-03-29T19:46:15.226Z,101501.75
2019-03-29T19:48:44.655Z,101502.93
2019-03-29T19:51:14.970Z,101496.41
2019-03-29T19:53:44.386Z,101491.71
2019-03-29T19:56:13.931Z,101492.13
2019-03-29T19:58:43.446Z,101487.58
2019-03-29T20:01:13.088Z,101478.30
2019-03-29T20:03:42.522Z,101487.48
2019-03-29T20:06:12.115Z,101481.80
2019-03-29T20:08:41.586Z,101483.53
2019-03-29T20:11:11.228Z,101492.00
2019-03-29T20:13:40.645Z,101489.84
2019-03-29T20:16:10.183Z,101486.94
2019-03-29T20:18:39.622Z,101489.89
2019-03-29T20:21:09.195Z,101489.89
2019-03-29T20:23:38.560Z,101488.24
2019-03-29T20:26:08.543Z,101489.98
2019-03-29T20:28:38.096Z,101492.83
2019-03-29T20:31:07.586Z,101491.75
2019-03-29T20:33:37.109Z,101490.25
2019-03-29T20:36:06.759Z,101487.06
2019-03-29T20:38:36.289Z,101479.61
2019-03-29T20:41:05.884Z,101472.27
2019-03-29T20:43:35.424Z,101469.77
2019-03-29T20:46:04.981Z,101470.92
2019-03-29T20:48:34.573Z,101467.91
2019-03-29T20:51:04.039Z,101479.94
2019-03-29T20:53:33.620Z,101474.63
2019-03-29T20:56:06.367Z,101474.80
2019-03-29T20:58:34.312Z,101480.35
2019-03-29T21:01:03.857Z,101477.07
2019-03-29T21:03:33.243Z,101476.12
2019-03-29T21:06:02.768Z,101471.38
2019-03-29T21:08:32.165Z,101463.38
2019-03-29T21:11:01.656Z,101469.46
2019-03-29T21:13:31.154Z,101467.81
2019-03-29T21:16:00.551Z,101467.33
2019-03-29T21:18:29.951Z,101477.23
2019-03-29T21:20:59.485Z,101467.19
2019-03-29T21:23:29.022Z,101472.24
2019-03-29T21:25:58.558Z,101470.74
2019-03-29T21:28:27.862Z,101466.73
2019-03-29T21:30:57.416Z,101465.89
2019-03-29T21:33:26.997Z,101464.88
2019-03-29T21:35:56.571Z,101466.23
2019-03-29T21:38:26.110Z,101461.19
2019-03-29T21:40:55.534Z,101450.49
2019-03-29T21:43:25.045Z,101459.52
2019-03-29T21:45:54.566Z,101452.48
2019-03-29T21:48:29.025Z,101448.47
2019-03-29T21:50:55.857Z,101442.70
2019-03-29T21:53:25.355Z,101441.05
2019-03-29T21:55:54.843Z,101436.07
2019-03-29T21:58:24.268Z,101447.55
2019-03-29T22:00:54.171Z,101438.51
2019-03-29T22:03:23.704Z,101443.70
2019-03-29T22:05:53.296Z,101442.69
2019-03-29T22:08:22.625Z,101436.30
2019-03-29T22:10:52.241Z,101440.64
2019-03-29T22:13:21.621Z,101436.92
2019-03-29T22:15:51.384Z,101439.59
2019-03-29T22:18:20.944Z,101446.63
2019-03-29T22:20:50.396Z,101440.77
2019-03-29T22:23:19.893Z,101432.00
2019-03-29T22:25:49.312Z,101434.67
2019-03-29T22:28:18.801Z,101430.63
2019-03-29T22:30:48.291Z,101434.27
2019-03-29T22:33:17.865Z,101426.04
2019-03-29T22:35:47.289Z,101420.83
2019-03-29T22:38:16.704Z,101423.52
2019-03-29T22:40:46.158Z,101421.08
2019-03-29T22:43:16.148Z,101418.55
2019-03-29T22:45:45.695Z,101414.55
2019-03-29T22:48:15.139Z,101415.30
2019-03-29T22:50:44.658Z,101408.84
2019-03-29T22:53:14.103Z,101413.13
2019-03-29T22:55:43.484Z,101408.36
2019-03-29T22:58:12.999Z,101411.30
2019-03-29T23:00:46.168Z,101411.09
2019-03-29T23:03:16.107Z,101399.81
2019-03-29T23:05:46.005Z,101407.25
2019-03-29T23:08:15.626Z,101396.63
2019-03-29T23:10:45.024Z,101399.87
2019-03-29T23:13:14.879Z,101398.75
2019-03-29T23:15:45.847Z,101394.37
2019-03-29T23:18:15.281Z,101395.83
2019-03-29T23:20:44.663Z,101394.56
2019-03-29T23:23:14.232Z,101398.17
2019-03-29T23:25:43.655Z,101397.39
2019-03-29T23:28:13.177Z,101397.84
2019-03-29T23:30:42.715Z,101397.07
2019-03-29T23:33:12.365Z,101391.84
2019-03-29T23:35:41.793Z,101388.94
2019-03-29T23:38:11.224Z,101391.84
2019-03-29T23:40:40.677Z,101390.45
2019-03-29T23:43:10.147Z,101397.69
2019-03-29T23:45:39.549Z,101392.46
2019-03-29T23:48:08.878Z,101397.73
2019-03-29T23:50:38.519Z,101392.63
2019-03-29T23:53:08.124Z,101398.63
2019-03-29T23:55:37.638Z,101401.62
2019-03-29T23:58:07.063Z,101395.66
